< < Back
Terminal Aerodrome Forecast


Current Version              Previous Versions:   1  2  3  4  5  6  7  8  9  

Terminal Aerodrome Forecast

068
FTUS42 KJAX 282300
TAFGNV
TAF
KGNV 282320Z 2900/2924 25012G20KT P6SM SCT040 SCT250
     FM290500 24010KT P6SM VCTS BKN035CB BKN250
      TEMPO 2905/2909 5SM -TSRA BKN030CB
     FM290900 24007KT P6SM VCSH SCT030 BKN250
     FM291300 27009KT P6SM SCT030 BKN250
     FM291800 28010G18KT P6SM VCTS SCT035CB BKN250=

Latest METAR

327
SAUS70 KWBC 291000 RRH
MTRGNV
METAR KGNV 290953Z AUTO 29003KT 10SM SCT042 26/24 A2991 RMK AO2 SLP125
T02560239


USA.gov is the U.S. government's official web portal to all federal, state and local government web resources and services.